Página principal
METAR-TAF:

METAR-TAF

Aeroportos :

Málaga, Espanha

latitude: 36-40N, longitude: 004-29W, altura: 16 m

Observação actual do tempo

O boletim foi feito há 18 minutos, às 11:00 UTC
Vento 8 kt de su-sudeste, variando entre es-sudeste e su-sudoeste
Temperatura 28°C
Humidade 58%
Pressão 1018 hPa
Visibilidade 10 km ou mais
Poucas nuvensa uma altura de 2800 ft

METAR: LEMG 191100Z 16008KT 110V210 9999 FEW028 28/19 Q1018 NOSIG

Hora: 13:18 (11:18 UTC)

Previsão

O boletim foi feito há 6 horas e 18 minutos, às 05:00 UTC
Previsão válida de 19 às 06 UTC a 20 às 06 UTC
Vento 3 kt de oes-noroeste
Visibilidade 10 km ou mais
sem nuvens abaixo de 1500 metros e sem cumulonimbus
Tornando-se
de 19 às 10 UTC a 19 às 12 UTC
Vento 9 kt de sudeste

TAF: LEMG 190500Z 1906/2006 30003KT CAVOK TX29/1913Z TN21/1906Z BECMG 1910/1912 14009KT

Observações e previsões do tempo de mais de 4000 aeroportos (mensagens METAR e TAF).

As estações disponíveis são os pontos amarelos e vermelhos sobre o mapa.

Mova o rato sobre o mapa para ver o nome da estação.

Depois clique no ponto para visualizar as observações e previsões meteorológicas.

Para alterar o mapa : clique nos botões verdes com uma cruz preta para aumentar o zoom; no botão verde com uma pitada de zoom; ou nas setas verdes para mapas adjacentes.


METAR-TAF: